Time;durP1;ratioP1;P1;durP2;ratioP2;P2;SDS_P1;SDS_P2;PMS_P1;PMS_P2;Temp;Humidity;BMP_temperature;BMP_pressure;BME280_temperature;BME280_humidity;BME280_pressure;Samples;Min_cycle;Max_cycle;Signal;HPM_P1;HPM_P2
2021/01/28 00:02:25;;;;;;;9.20;2.78;;;7.80;99.90;;;;;;5054365;28;20033;-90
2021/01/28 00:04:53;;;;;;;10.40;2.55;;;7.90;99.90;;;;;;5052560;28;20064;-90
2021/01/28 00:07:19;;;;;;;8.50;2.60;;;7.70;99.90;;;;;;5052571;28;20025;-89
2021/01/28 00:09:45;;;;;;;9.57;2.40;;;7.70;99.90;;;;;;5052967;28;20027;-89
2021/01/28 00:12:11;;;;;;;15.02;2.83;;;7.80;99.90;;;;;;5053975;28;20322;-89
2021/01/28 00:14:37;;;;;;;7.57;2.53;;;7.80;99.90;;;;;;5057047;28;20079;-88
2021/01/28 00:17:02;;;;;;;14.75;2.80;;;7.80;99.90;;;;;;5040373;28;20057;-87
2021/01/28 00:19:28;;;;;;;9.45;3.50;;;7.90;99.90;;;;;;5060189;28;20517;-88
2021/01/28 00:21:56;;;;;;;11.07;2.47;;;8.00;99.90;;;;;;5045980;28;20035;-88
2021/01/28 00:24:22;;;;;;;12.18;2.58;;;8.00;99.90;;;;;;5061833;28;20438;-88
2021/01/28 00:26:47;;;;;;;10.38;2.70;;;8.00;99.90;;;;;;5059558;28;20045;-87
2021/01/28 00:29:13;;;;;;;8.85;2.88;;;8.00;99.90;;;;;;5059095;28;20025;-88
2021/01/28 00:31:39;;;;;;;8.52;2.05;;;8.00;99.90;;;;;;5061522;28;20056;-88
2021/01/28 00:34:04;;;;;;;8.45;2.38;;;7.90;99.90;;;;;;5065277;28;20040;-88
2021/01/28 00:36:30;;;;;;;9.02;1.58;;;7.80;99.90;;;;;;5059551;28;20489;-88
2021/01/28 00:38:56;;;;;;;9.55;2.28;;;7.50;99.90;;;;;;5039286;28;20037;-89
2021/01/28 00:41:21;;;;;;;12.10;1.90;;;7.60;99.90;;;;;;5039586;28;20083;-88
2021/01/28 00:43:47;;;;;;;6.05;1.83;;;7.50;99.90;;;;;;5039234;28;20036;-88
2021/01/28 00:46:13;;;;;;;9.23;1.98;;;7.60;99.90;;;;;;5038713;28;20391;-89
2021/01/28 00:48:38;;;;;;;6.50;2.10;;;7.60;99.90;;;;;;5055783;28;20097;-89
2021/01/28 00:51:05;;;;;;;12.68;2.15;;;7.70;99.90;;;;;;5055273;28;20036;-89
2021/01/28 00:53:30;;;;;;;8.90;2.22;;;7.80;99.90;;;;;;5057961;28;20048;-88
2021/01/28 00:55:56;;;;;;;7.05;2.13;;;7.70;99.90;;;;;;5057633;28;20029;-89
2021/01/28 00:58:24;;;;;;;9.35;2.38;;;7.80;99.90;;;;;;5055089;28;20091;-88
2021/01/28 01:00:53;;;;;;;9.43;1.90;;;7.80;99.90;;;;;;5055247;28;20108;-89
2021/01/28 01:03:21;;;;;;;8.90;2.80;;;7.80;99.90;;;;;;5056559;28;20425;-89
2021/01/28 01:05:47;;;;;;;8.32;2.17;;;7.80;99.90;;;;;;5056218;28;20405;-89
2021/01/28 01:08:19;;;;;;;13.13;2.50;;;7.80;99.90;;;;;;5056051;28;20356;-88
2021/01/28 01:10:49;;;;;;;5.93;2.28;;;7.70;99.90;;;;;;5055264;28;20021;-88
2021/01/28 01:13:19;;;;;;;13.32;2.63;;;7.80;99.90;;;;;;5055115;28;20056;-89
2021/01/28 01:15:45;;;;;;;8.43;2.40;;;7.70;99.90;;;;;;5055052;28;20065;-89
2021/01/28 01:18:14;;;;;;;16.05;2.90;;;7.60;99.90;;;;;;5056108;28;20041;-88
2021/01/28 01:20:40;;;;;;;7.85;2.53;;;7.60;99.90;;;;;;5055013;28;20029;-87
2021/01/28 01:23:06;;;;;;;10.93;2.67;;;7.60;99.90;;;;;;5054663;28;20182;-89
2021/01/28 01:25:31;;;;;;;10.80;3.08;;;7.80;99.90;;;;;;5055196;28;20021;-88
2021/01/28 01:27:57;;;;;;;10.63;2.88;;;7.80;99.90;;;;;;5055123;28;20022;-88
2021/01/28 01:30:28;;;;;;;11.68;3.40;;;7.90;99.90;;;;;;5038328;28;20410;-88
2021/01/28 01:32:54;;;;;;;9.25;2.85;;;7.90;99.90;;;;;;5054736;28;20033;-88
2021/01/28 01:35:22;;;;;;;11.80;2.60;;;8.00;99.90;;;;;;5054902;28;20131;-87
2021/01/28 01:37:52;;;;;;;8.88;3.13;;;8.00;99.90;;;;;;5055062;28;20095;-88
2021/01/28 01:40:28;;;;;;;13.75;3.38;;;7.80;99.90;;;;;;5055239;28;20555;-89
2021/01/28 01:42:55;;;;;;;12.93;3.60;;;7.70;99.90;;;;;;5056264;28;20083;-88
2021/01/28 01:45:31;;;;;;;11.07;2.50;;;7.80;99.90;;;;;;5038701;28;20044;-88
2021/01/28 01:48:17;;;;;;;8.30;2.40;;;7.80;99.90;;;;;;5055701;28;20051;-89
2021/01/28 01:51:03;;;;;;;8.05;3.58;;;7.70;99.90;;;;;;5057716;28;20107;-88
2021/01/28 01:53:32;;;;;;;11.15;3.28;;;7.70;99.90;;;;;;5061007;28;20033;-89
2021/01/28 01:56:30;;;;;;;8.85;3.08;;;7.50;99.90;;;;;;5058174;28;20029;-88
2021/01/28 01:59:05;;;;;;;11.05;3.08;;;7.50;99.90;;;;;;5054959;28;20033;-88
2021/01/28 02:01:36;;;;;;;10.13;2.70;;;7.60;99.90;;;;;;5058402;28;20410;-88
2021/01/28 02:04:02;;;;;;;10.90;2.88;;;7.40;99.90;;;;;;5057838;28;20029;-90
2021/01/28 02:06:49;;;;;;;9.10;2.78;;;7.40;99.90;;;;;;5042714;28;20033;-88
2021/01/28 02:09:15;;;;;;;8.20;2.40;;;7.30;99.90;;;;;;5066696;28;20025;-88
2021/01/28 02:11:42;;;;;;;11.70;2.72;;;7.50;99.90;;;;;;5056750;28;20036;-88
2021/01/28 02:14:10;;;;;;;5.72;2.20;;;7.40;99.90;;;;;;5053294;28;20033;-89
2021/01/28 02:16:42;;;;;;;13.23;2.97;;;7.30;99.90;;;;;;5053308;28;20033;-89
2021/01/28 02:19:27;;;;;;;9.10;2.15;;;7.30;99.90;;;;;;5054907;28;20033;-88
2021/01/28 02:21:53;;;;;;;6.88;2.67;;;7.30;99.90;;;;;;5053892;28;20108;-88
2021/01/28 02:25:01;;;;;;;11.35;2.60;;;7.10;99.90;;;;;;5036689;28;20542;-89
2021/01/28 02:27:28;;;;;;;12.60;3.30;;;7.30;99.90;;;;;;4993078;28;20026;-88
2021/01/28 02:29:54;;;;;;;10.80;2.50;;;7.20;99.90;;;;;;4976685;28;20030;-88
2021/01/28 02:32:20;;;;;;;8.07;2.70;;;7.20;99.90;;;;;;5023595;28;20436;-89
2021/01/28 02:34:46;;;;;;;10.90;2.38;;;7.10;99.90;;;;;;5052147;28;20504;-88
2021/01/28 02:37:18;;;;;;;11.10;2.55;;;7.30;99.90;;;;;;5052987;28;20027;-88
2021/01/28 02:39:44;;;;;;;11.02;2.80;;;7.20;99.90;;;;;;5053092;28;20179;-88
2021/01/28 02:42:23;;;;;;;12.75;3.47;;;7.10;99.90;;;;;;5052378;28;20486;-89
2021/01/28 02:44:49;;;;;;;10.32;3.47;;;7.00;99.90;;;;;;5053515;28;20064;-89
2021/01/28 02:47:15;;;;;;;8.43;3.17;;;7.00;99.90;;;;;;5066568;28;20130;-88
2021/01/28 02:49:41;;;;;;;15.65;4.13;;;7.10;99.90;;;;;;5060555;28;20032;-89
2021/01/28 02:52:07;;;;;;;11.75;3.00;;;7.00;99.90;;;;;;5069375;28;20529;-88
2021/01/28 02:54:41;;;;;;;10.05;3.92;;;7.00;99.90;;;;;;5052905;28;20127;-88
2021/01/28 02:57:07;;;;;;;9.02;4.05;;;7.00;99.90;;;;;;5052856;28;20056;-90
2021/01/28 02:59:33;;;;;;;10.98;3.22;;;7.00;99.90;;;;;;5052918;28;20040;-89
2021/01/28 03:02:05;;;;;;;17.05;4.28;;;7.00;99.90;;;;;;5053020;28;20037;-88
2021/01/28 03:04:30;;;;;;;17.70;4.10;;;7.00;99.90;;;;;;5052377;28;20461;-89
2021/01/28 03:06:56;;;;;;;8.52;4.47;;;7.10;99.90;;;;;;5035871;28;20124;-89
2021/01/28 03:09:22;;;;;;;10.93;4.07;;;7.00;99.90;;;;;;5052798;28;20120;-89
2021/01/28 03:11:48;;;;;;;9.07;3.65;;;6.90;99.90;;;;;;5036001;28;20057;-88
2021/01/28 03:14:13;;;;;;;10.23;4.10;;;6.80;99.90;;;;;;5052734;28;20372;-88
2021/01/28 03:16:39;;;;;;;11.02;4.70;;;6.90;99.90;;;;;;5035601;28;20543;-88
2021/01/28 03:19:04;;;;;;;10.25;3.88;;;7.00;99.90;;;;;;5052781;28;20378;-89
2021/01/28 03:21:30;;;;;;;9.50;3.53;;;7.10;99.90;;;;;;5036225;28;20114;-88
2021/01/28 03:23:56;;;;;;;11.63;4.50;;;7.00;99.90;;;;;;5052784;28;20051;-88
2021/01/28 03:26:21;;;;;;;9.40;4.00;;;7.10;99.90;;;;;;5035469;28;20171;-89
2021/01/28 03:28:47;;;;;;;8.98;3.95;;;7.10;99.90;;;;;;5053203;28;20033;-88
2021/01/28 03:31:12;;;;;;;13.90;4.93;;;7.10;99.90;;;;;;5052417;28;20040;-89
2021/01/28 03:33:38;;;;;;;11.68;4.35;;;7.10;99.90;;;;;;5035716;28;20128;-88
2021/01/28 03:36:04;;;;;;;12.20;5.22;;;7.00;99.90;;;;;;5035844;28;20364;-89
2021/01/28 03:38:30;;;;;;;9.55;5.32;;;7.10;99.90;;;;;;5052369;28;20434;-88
2021/01/28 03:40:55;;;;;;;13.02;4.10;;;7.10;99.90;;;;;;5053818;28;20037;-88
2021/01/28 03:43:21;;;;;;;13.02;5.38;;;7.10;99.90;;;;;;5052120;28;20478;-89
2021/01/28 03:45:49;;;;;;;10.60;4.57;;;7.10;99.90;;;;;;5036260;28;20356;-89
2021/01/28 03:48:15;;;;;;;10.45;4.57;;;7.00;99.90;;;;;;5057134;28;20116;-89
2021/01/28 03:50:41;;;;;;;9.32;4.60;;;6.90;99.90;;;;;;5056976;28;20068;-89
2021/01/28 03:53:06;;;;;;;11.02;5.15;;;6.80;99.90;;;;;;5056290;28;20175;-88
2021/01/28 03:55:33;;;;;;;11.30;4.97;;;6.80;99.90;;;;;;5057738;28;20029;-88
2021/01/28 03:57:59;;;;;;;15.55;5.55;;;6.80;99.90;;;;;;5056557;28;20056;-89
2021/01/28 04:00:33;;;;;;;13.27;5.05;;;6.80;99.90;;;;;;5056181;28;20471;-89
2021/01/28 04:03:00;;;;;;;13.05;4.90;;;6.70;99.90;;;;;;5055778;28;20029;-88
2021/01/28 04:05:27;;;;;;;17.83;5.55;;;6.60;99.90;;;;;;5056075;28;20040;-89
2021/01/28 04:07:53;;;;;;;13.90;6.40;;;6.50;99.90;;;;;;5056018;28;20123;-88
2021/01/28 04:10:27;;;;;;;18.67;7.63;;;6.50;99.90;;;;;;5055520;28;20029;-88
2021/01/28 04:12:53;;;;;;;21.00;9.02;;;6.40;99.90;;;;;;5057271;28;20036;-88
2021/01/28 04:15:19;;;;;;;24.13;9.43;;;6.40;99.90;;;;;;5055449;28;20037;-88
2021/01/28 04:17:46;;;;;;;19.67;8.90;;;6.40;99.90;;;;;;5038841;28;20514;-89
2021/01/28 04:20:13;;;;;;;16.75;8.32;;;6.40;99.90;;;;;;5055946;28;20029;-88
2021/01/28 04:22:39;;;;;;;24.67;11.07;;;6.30;99.90;;;;;;5040236;28;20398;-88
2021/01/28 04:25:06;;;;;;;21.27;11.18;;;6.30;99.90;;;;;;5055888;28;20033;-88
2021/01/28 04:27:31;;;;;;;24.33;11.15;;;6.30;99.90;;;;;;5072619;28;20048;-88
2021/01/28 04:29:57;;;;;;;37.30;13.15;;;6.30;99.90;;;;;;5058689;28;20104;-87
2021/01/28 04:32:23;;;;;;;46.65;13.27;;;6.30;99.90;;;;;;5085454;28;20036;-87
2021/01/28 04:34:50;;;;;;;27.95;14.18;;;6.20;99.90;;;;;;5059427;28;20143;-88
2021/01/28 04:37:16;;;;;;;29.98;13.35;;;6.20;99.90;;;;;;5059514;28;20059;-93
2021/01/28 04:39:41;;;;;;;35.03;15.50;;;6.20;99.90;;;;;;5060340;28;20037;-89
2021/01/28 04:42:21;;;;;;;34.83;15.30;;;6.20;99.90;;;;;;5075818;28;20040;-87
2021/01/28 04:44:47;;;;;;;35.45;16.38;;;6.20;99.90;;;;;;5055404;28;20033;-88
2021/01/28 04:47:17;;;;;;;40.88;17.02;;;6.20;99.90;;;;;;5055444;28;20375;-88
2021/01/28 04:50:05;;;;;;;34.45;15.65;;;6.20;99.90;;;;;;5055403;28;20562;-88
2021/01/28 04:52:37;;;;;;;43.63;17.15;;;6.20;99.90;;;;;;5072060;28;20029;-88
2021/01/28 04:55:06;;;;;;;48.85;20.55;;;6.20;99.90;;;;;;5055152;28;20037;-87
2021/01/28 04:57:32;;;;;;;45.42;18.75;;;6.20;99.90;;;;;;5054154;28;20025;-88
2021/01/28 04:59:58;;;;;;;55.55;22.13;;;6.10;99.90;;;;;;5055209;28;20031;-87
2021/01/28 05:02:26;;;;;;;57.38;22.13;;;6.10;99.90;;;;;;5071676;28;20040;-88
2021/01/28 05:04:59;;;;;;;51.08;20.77;;;6.20;99.90;;;;;;5056553;28;20039;-88
2021/01/28 05:07:36;;;;;;;54.08;24.13;;;6.20;99.90;;;;;;5055120;28;20471;-88
2021/01/28 05:10:11;;;;;;;48.67;23.30;;;6.20;99.90;;;;;;5055406;28;20448;-88
2021/01/28 05:12:37;;;;;;;53.80;23.20;;;6.20;99.90;;;;;;5055957;28;20511;-89
2021/01/28 05:15:23;;;;;;;57.53;23.23;;;6.20;99.90;;;;;;5055832;28;20414;-89
2021/01/28 05:18:20;;;;;;;53.13;23.02;;;6.30;99.90;;;;;;5071678;28;20075;-88
2021/01/28 05:20:45;;;;;;;52.33;21.48;;;6.20;99.90;;;;;;5055212;28;20112;-89
2021/01/28 05:23:33;;;;;;;44.35;21.05;;;6.30;99.90;;;;;;5056065;28;20137;-89
2021/01/28 05:25:59;;;;;;;46.13;22.20;;;6.20;99.90;;;;;;5055233;28;20034;-89
2021/01/28 05:28:42;;;;;;;53.22;21.27;;;6.30;99.90;;;;;;5056830;28;20036;-89
2021/01/28 05:31:18;;;;;;;43.65;20.88;;;6.30;99.90;;;;;;5056703;28;20421;-89
2021/01/28 05:33:43;;;;;;;37.40;18.92;;;6.30;99.90;;;;;;5055754;28;20173;-89
2021/01/28 05:36:24;;;;;;;39.97;18.73;;;6.30;99.90;;;;;;5072462;28;20483;-89
2021/01/28 05:38:55;;;;;;;35.72;17.70;;;6.20;99.90;;;;;;5056788;28;20029;-89
2021/01/28 05:41:34;;;;;;;40.15;18.13;;;6.30;99.90;;;;;;5056464;28;20067;-89
2021/01/28 05:44:21;;;;;;;36.90;18.50;;;6.30;99.90;;;;;;5057272;28;20025;-89
2021/01/28 05:47:07;;;;;;;31.30;16.10;;;6.20;99.90;;;;;;5074163;28;20024;-88
2021/01/28 05:49:36;;;;;;;34.20;16.35;;;6.20;99.90;;;;;;5063103;28;20025;-89
2021/01/28 05:52:26;;;;;;;25.85;15.55;;;6.20;99.90;;;;;;5074879;28;20405;-88
2021/01/28 05:55:16;;;;;;;24.73;13.30;;;6.20;99.90;;;;;;5075649;28;20363;-90
2021/01/28 05:58:21;;;;;;;27.15;13.18;;;6.30;99.90;;;;;;5076955;28;20028;-89
2021/01/28 06:01:03;;;;;;;30.45;14.95;;;6.20;99.90;;;;;;5087292;28;20475;-89
2021/01/28 06:03:48;;;;;;;25.75;13.05;;;6.20;99.90;;;;;;5071561;28;20029;-89
2021/01/28 06:06:38;;;;;;;22.33;11.85;;;6.20;99.90;;;;;;5074566;28;20029;-89
2021/01/28 06:09:52;;;;;;;19.73;10.45;;;6.20;99.90;;;;;;5073679;28;20025;-88
2021/01/28 06:12:50;;;;;;;19.75;9.75;;;6.10;99.90;;;;;;5011546;28;20104;-88
2021/01/28 06:15:46;;;;;;;18.70;10.07;;;6.10;99.90;;;;;;5077471;28;20033;-88
2021/01/28 06:18:14;;;;;;;18.45;10.43;;;6.10;99.90;;;;;;5077374;28;20044;-89
2021/01/28 06:21:05;;;;;;;21.75;9.82;;;6.10;99.90;;;;;;5080368;28;20051;-89
2021/01/28 06:24:08;;;;;;;17.05;9.45;;;6.10;99.90;;;;;;5056377;28;20056;-89
2021/01/28 06:26:36;;;;;;;19.23;9.48;;;6.20;99.90;;;;;;5069042;28;20016;-89
2021/01/28 06:29:21;;;;;;;14.20;7.35;;;6.10;99.90;;;;;;5073227;28;20025;-88
2021/01/28 06:32:08;;;;;;;17.75;6.70;;;6.10;99.90;;;;;;5060741;28;20025;-88
2021/01/28 06:35:01;;;;;;;15.63;7.20;;;6.10;99.90;;;;;;5054084;28;20494;-88
2021/01/28 06:37:51;;;;;;;21.02;6.82;;;6.10;99.90;;;;;;5054269;28;20463;-90
2021/01/28 06:40:23;;;;;;;14.23;7.15;;;6.20;99.90;;;;;;5054231;28;20489;-88
2021/01/28 06:42:54;;;;;;;14.32;6.85;;;6.20;99.90;;;;;;5053454;28;20116;-88
2021/01/28 06:45:26;;;;;;;16.02;6.32;;;6.10;99.90;;;;;;5054509;28;20090;-89
2021/01/28 06:48:13;;;;;;;12.63;6.95;;;6.10;99.90;;;;;;5081641;28;20028;-89
2021/01/28 06:50:51;;;;;;;17.90;6.15;;;6.20;99.90;;;;;;5054601;28;20071;-88
2021/01/28 06:53:42;;;;;;;12.25;5.68;;;6.20;99.90;;;;;;5053865;28;20052;-89
2021/01/28 06:56:21;;;;;;;11.82;5.65;;;6.00;99.90;;;;;;5046049;28;20041;-89
2021/01/28 06:59:05;;;;;;;10.20;4.82;;;6.00;99.90;;;;;;5053694;28;20475;-89
2021/01/28 07:01:44;;;;;;;10.73;5.22;;;5.90;99.90;;;;;;5053243;28;20350;-88
2021/01/28 07:04:36;;;;;;;7.97;4.88;;;6.00;99.90;;;;;;5052707;28;20090;-88
2021/01/28 07:07:20;;;;;;;10.98;4.93;;;5.90;99.90;;;;;;5017476;28;20044;-88
2021/01/28 07:10:07;;;;;;;13.77;4.80;;;5.90;99.90;;;;;;5054219;28;20130;-88
2021/01/28 07:12:42;;;;;;;9.95;5.18;;;5.90;99.90;;;;;;5054420;28;20025;-89
2021/01/28 07:15:11;;;;;;;11.57;4.10;;;5.90;99.90;;;;;;5054859;28;20039;-88
2021/01/28 07:17:51;;;;;;;13.45;5.07;;;5.80;99.90;;;;;;5052457;28;20053;-88
2021/01/28 07:20:34;;;;;;;16.95;4.57;;;5.80;99.90;;;;;;5053696;28;20074;-88
2021/01/28 07:23:37;;;;;;;13.07;5.80;;;5.80;99.90;;;;;;5053715;28;20022;-88
2021/01/28 07:26:17;;;;;;;11.55;5.30;;;5.70;99.90;;;;;;5053568;28;20490;-88
2021/01/28 07:28:45;;;;;;;12.88;6.30;;;5.70;99.90;;;;;;5054168;28;20459;-88
2021/01/28 07:31:16;;;;;;;13.63;5.70;;;5.60;99.90;;;;;;5054079;28;20036;-87
2021/01/28 07:33:49;;;;;;;13.68;5.18;;;5.70;99.90;;;;;;5052671;28;20131;-87
2021/01/28 07:36:24;;;;;;;11.88;6.25;;;5.70;99.90;;;;;;5053463;28;20509;-88
2021/01/28 07:38:54;;;;;;;;;;;5.60;99.90;;;;;;5053688;28;20036;-88
2021/01/28 07:41:25;;;;;;;14.43;6.07;;;5.60;99.90;;;;;;5070357;28;19905;-88
2021/01/28 07:43:53;;;;;;;17.45;7.22;;;5.60;99.90;;;;;;5055705;28;20036;-89
2021/01/28 07:46:28;;;;;;;12.95;6.22;;;5.60;99.90;;;;;;5055676;28;20029;-90
2021/01/28 07:49:23;;;;;;;;;;;5.70;99.90;;;;;;5057176;28;20029;-89
2021/01/28 07:51:50;;;;;;;16.35;8.23;;;5.70;99.90;;;;;;5050970;28;19931;-89
2021/01/28 07:54:25;;;;;;;14.80;8.55;;;5.60;99.90;;;;;;5064251;28;20029;-89
2021/01/28 07:56:57;;;;;;;;;;;5.60;99.90;;;;;;5064703;28;20052;-88
2021/01/28 07:59:31;;;;;;;20.90;8.68;;;5.60;99.90;;;;;;5053733;28;19905;-87
2021/01/28 08:02:16;;;;;;;16.85;10.25;;;5.60;99.90;;;;;;5054166;28;20025;-88
2021/01/28 08:04:49;;;;;;;15.68;9.25;;;5.60;99.90;;;;;;5052445;28;20123;-89
2021/01/28 08:07:39;;;;;;;19.95;10.25;;;5.60;99.90;;;;;;5053546;28;20033;-88
2021/01/28 08:10:19;;;;;;;19.05;8.48;;;5.60;99.90;;;;;;5053361;28;20120;-88
2021/01/28 08:12:56;;;;;;;20.98;10.75;;;5.70;99.90;;;;;;5050740;28;20032;-88
2021/01/28 08:15:35;;;;;;;22.27;10.05;;;5.80;99.90;;;;;;5053018;28;20036;-88
2021/01/28 08:18:22;;;;;;;21.42;11.50;;;5.80;99.90;;;;;;5053070;28;20051;-87
2021/01/28 08:20:49;;;;;;;25.25;12.55;;;5.80;99.90;;;;;;5050924;28;20048;-88
2021/01/28 08:23:16;;;;;;;32.35;13.63;;;5.70;99.90;;;;;;5035471;28;20082;-88
2021/01/28 08:26:01;;;;;;;25.10;12.80;;;5.70;99.90;;;;;;5051482;28;20082;-88
2021/01/28 08:28:29;;;;;;;31.42;14.68;;;5.70;99.90;;;;;;5051874;28;20033;-88
2021/01/28 08:31:26;;;;;;;29.65;13.48;;;5.70;99.90;;;;;;5052741;28;20060;-88
2021/01/28 08:34:02;;;;;;;36.53;15.27;;;5.80;99.90;;;;;;5053501;28;20507;-88
2021/01/28 08:36:32;;;;;;;43.85;17.83;;;5.90;99.90;;;;;;5056591;28;20503;-88
2021/01/28 08:39:09;;;;;;;34.95;14.63;;;5.80;99.90;;;;;;5055835;28;20548;-88
2021/01/28 08:41:35;;;;;;;32.95;13.65;;;5.80;99.90;;;;;;5071784;28;20036;-88
2021/01/28 08:44:04;;;;;;;32.22;15.55;;;5.80;99.90;;;;;;5071603;28;20033;-88
2021/01/28 08:46:30;;;;;;;30.50;14.60;;;5.80;99.90;;;;;;5071280;28;20039;-88
2021/01/28 08:49:12;;;;;;;32.92;15.07;;;5.70;99.90;;;;;;5054617;28;20025;-88
2021/01/28 08:51:41;;;;;;;32.60;13.60;;;5.80;99.90;;;;;;5055097;28;20024;-87
2021/01/28 08:54:34;;;;;;;117.68;25.15;;;5.80;99.90;;;;;;5054720;28;20036;-88
2021/01/28 08:57:00;;;;;;;38.30;16.60;;;5.70;99.90;;;;;;5056234;28;20044;-88
2021/01/28 08:59:37;;;;;;;30.00;14.35;;;5.70;99.90;;;;;;5055477;28;20040;-89
2021/01/28 09:02:03;;;;;;;34.95;16.15;;;5.70;99.90;;;;;;5056566;28;20104;-91
2021/01/28 09:04:38;;;;;;;36.85;16.48;;;5.70;99.90;;;;;;5056293;28;20068;-88
2021/01/28 09:07:04;;;;;;;29.98;14.38;;;5.70;99.90;;;;;;5059422;28;20085;-86
2021/01/28 09:09:32;;;;;;;26.27;14.57;;;5.80;99.90;;;;;;5072521;28;20029;-88
2021/01/28 09:12:27;;;;;;;29.38;13.40;;;5.80;99.90;;;;;;5055829;28;20029;-88
2021/01/28 09:15:14;;;;;;;24.38;12.48;;;5.80;99.90;;;;;;5053302;28;20045;-88
2021/01/28 09:17:43;;;;;;;25.10;13.23;;;5.80;99.90;;;;;;5070746;28;20041;-88
2021/01/28 09:20:23;;;;;;;28.63;14.00;;;5.90;99.90;;;;;;5055835;28;20025;-89
2021/01/28 09:22:49;;;;;;;28.52;15.20;;;5.90;99.90;;;;;;5055776;28;20092;-88
2021/01/28 09:25:18;;;;;;;29.83;13.77;;;5.90;99.90;;;;;;5055768;28;20029;-88
2021/01/28 09:27:51;;;;;;;34.35;17.10;;;5.90;99.90;;;;;;5055606;28;20502;-90
2021/01/28 09:30:24;;;;;;;25.73;13.50;;;5.90;99.90;;;;;;5056034;28;20037;-86
2021/01/28 09:32:50;;;;;;;25.10;13.40;;;5.90;99.90;;;;;;5059225;28;20021;-88
2021/01/28 09:35:27;;;;;;;30.88;14.90;;;5.90;99.90;;;;;;5056729;28;20083;-89
2021/01/28 09:38:16;;;;;;;34.97;16.38;;;5.90;99.90;;;;;;5057607;28;20080;-89
2021/01/28 09:40:46;;;;;;;24.40;13.57;;;5.90;99.90;;;;;;5064176;28;20119;-89
2021/01/28 09:43:28;;;;;;;30.95;15.10;;;5.90;99.90;;;;;;5061479;28;20056;-89
2021/01/28 09:46:19;;;;;;;19.98;13.00;;;5.80;99.90;;;;;;5054870;28;20037;-89
2021/01/28 09:48:49;;;;;;;28.02;14.43;;;5.80;99.90;;;;;;5056863;28;20542;-90
2021/01/28 09:51:26;;;;;;;65.50;18.58;;;5.90;99.90;;;;;;5057102;28;20108;-90
2021/01/28 09:54:20;;;;;;;21.35;11.98;;;5.80;99.90;;;;;;5054876;28;20442;-89
2021/01/28 09:56:46;;;;;;;22.17;12.48;;;5.90;99.90;;;;;;5055313;28;20029;-90
2021/01/28 09:59:14;;;;;;;23.80;13.32;;;5.90;99.90;;;;;;5038762;28;20025;-90
2021/01/28 10:01:41;;;;;;;22.55;12.32;;;5.80;99.90;;;;;;5055864;28;20056;-88
2021/01/28 10:04:16;;;;;;;22.88;13.13;;;5.90;99.90;;;;;;5054108;28;20613;-89
2021/01/28 10:06:43;;;;;;;18.70;11.85;;;5.90;99.90;;;;;;5071511;28;20102;-89
2021/01/28 10:09:09;;;;;;;20.98;12.07;;;5.90;99.90;;;;;;5056105;28;20540;-88
2021/01/28 10:11:36;;;;;;;24.58;12.68;;;5.90;99.90;;;;;;5055653;28;20048;-87
2021/01/28 10:14:02;;;;;;;24.55;13.07;;;5.90;99.90;;;;;;5053496;28;20402;-88
2021/01/28 10:16:28;;;;;;;23.38;12.50;;;5.90;99.90;;;;;;5053701;28;20037;-88
2021/01/28 10:18:54;;;;;;;25.30;13.60;;;5.90;99.90;;;;;;5069421;28;20057;-88
2021/01/28 10:21:20;;;;;;;21.40;12.85;;;5.90;99.90;;;;;;5070807;28;20087;-88
2021/01/28 10:23:46;;;;;;;25.30;14.02;;;5.90;99.90;;;;;;5070815;28;20075;-88
2021/01/28 10:26:11;;;;;;;23.60;13.70;;;5.90;99.90;;;;;;5053794;28;20418;-88
2021/01/28 10:28:37;;;;;;;25.02;13.90;;;6.00;99.90;;;;;;5054047;28;20029;-88
2021/01/28 10:31:06;;;;;;;21.70;12.93;;;5.80;99.90;;;;;;5054320;28;20045;-88
2021/01/28 10:33:36;;;;;;;25.55;13.80;;;5.90;99.90;;;;;;5055471;28;20098;-88
2021/01/28 10:36:02;;;;;;;28.92;14.50;;;5.80;99.90;;;;;;5070077;28;20029;-88
2021/01/28 10:38:28;;;;;;;22.20;14.70;;;5.80;99.90;;;;;;5053811;28;20033;-89
2021/01/28 10:40:55;;;;;;;31.65;14.40;;;5.80;99.90;;;;;;5053669;28;20025;-89
2021/01/28 10:43:22;;;;;;;25.85;14.25;;;5.80;99.90;;;;;;5069928;28;20032;-88
2021/01/28 10:45:49;;;;;;;26.98;13.13;;;5.70;99.90;;;;;;5053416;28;20037;-88
2021/01/28 10:48:17;;;;;;;22.90;13.70;;;5.80;99.90;;;;;;5053413;28;20025;-88
2021/01/28 10:50:43;;;;;;;22.83;14.20;;;5.90;99.90;;;;;;5054727;28;20029;-89
2021/01/28 10:53:08;;;;;;;25.05;13.32;;;5.90;99.90;;;;;;5036338;28;20025;-89
2021/01/28 10:55:34;;;;;;;21.42;13.93;;;5.80;99.90;;;;;;5053653;28;20037;-90
2021/01/28 10:58:01;;;;;;;22.92;13.30;;;5.90;99.90;;;;;;5053327;28;20021;-89
2021/01/28 11:00:28;;;;;;;24.92;14.45;;;5.90;99.90;;;;;;5054809;28;20044;-90
2021/01/28 11:02:54;;;;;;;19.65;12.32;;;6.00;99.90;;;;;;5055872;28;20025;-90
2021/01/28 11:05:27;;;;;;;17.98;12.73;;;5.90;99.90;;;;;;5069633;28;20039;-89
2021/01/28 11:07:53;;;;;;;19.98;12.80;;;5.90;99.90;;;;;;5054674;28;20021;-92
2021/01/28 11:10:19;;;;;;;22.73;12.45;;;5.90;99.90;;;;;;5053202;28;20029;-90
2021/01/28 11:12:45;;;;;;;20.20;12.60;;;5.90;99.90;;;;;;5069777;28;20395;-89
2021/01/28 11:15:13;;;;;;;19.55;13.50;;;5.90;99.90;;;;;;5068526;28;20502;-89
2021/01/28 11:17:41;;;;;;;19.40;12.80;;;5.90;99.90;;;;;;5053129;28;20060;-89
2021/01/28 11:20:12;;;;;;;29.60;14.18;;;5.90;99.90;;;;;;5052670;28;20479;-88
2021/01/28 11:22:39;;;;;;;21.30;12.93;;;5.90;99.90;;;;;;5064371;28;20040;-89
2021/01/28 11:25:07;;;;;;;22.83;11.95;;;5.80;99.90;;;;;;5055009;28;20131;-88
2021/01/28 11:27:33;;;;;;;17.33;11.32;;;5.90;99.90;;;;;;5053648;28;20025;-88
2021/01/28 11:29:59;;;;;;;17.85;11.10;;;5.90;99.90;;;;;;5054756;28;20036;-89
2021/01/28 11:32:25;;;;;;;19.67;11.65;;;5.90;99.90;;;;;;5053947;28;20029;-88
2021/01/28 11:34:51;;;;;;;26.25;11.40;;;5.90;99.90;;;;;;5069392;28;20094;-89
2021/01/28 11:37:16;;;;;;;24.30;11.98;;;5.90;99.90;;;;;;5052373;28;20029;-90
2021/01/28 11:39:42;;;;;;;23.08;14.15;;;5.90;99.90;;;;;;5053239;28;20029;-89
2021/01/28 11:42:08;;;;;;;23.25;11.80;;;5.90;99.90;;;;;;5039073;28;20021;-88
2021/01/28 11:44:34;;;;;;;16.85;11.35;;;5.90;99.90;;;;;;5053641;28;20033;-88
2021/01/28 11:46:59;;;;;;;19.77;12.15;;;5.80;99.90;;;;;;5069418;28;20466;-88
2021/01/28 11:49:25;;;;;;;19.60;12.20;;;5.70;99.90;;;;;;5069128;28;20021;-88
2021/01/28 11:51:51;;;;;;;19.33;12.90;;;5.80;99.90;;;;;;5052827;28;20029;-88
2021/01/28 11:54:16;;;;;;;18.73;11.77;;;5.80;99.90;;;;;;5071883;28;20064;-88
2021/01/28 11:56:45;;;;;;;21.92;14.38;;;5.80;99.90;;;;;;5052788;28;20025;-89
2021/01/28 11:59:10;;;;;;;25.35;16.20;;;5.90;99.90;;;;;;5060654;28;20044;-89
2021/01/28 12:01:39;;;;;;;21.75;15.88;;;5.90;99.90;;;;;;5073259;28;20028;-89
2021/01/28 12:04:04;;;;;;;21.70;15.63;;;5.90;99.90;;;;;;5055564;28;20039;-90
2021/01/28 12:06:30;;;;;;;27.60;18.20;;;5.80;99.90;;;;;;5055464;28;20020;-90
2021/01/28 12:08:56;;;;;;;23.77;15.40;;;5.80;99.90;;;;;;5075783;28;20416;-90
2021/01/28 12:11:21;;;;;;;25.33;14.48;;;5.80;99.90;;;;;;5078978;28;20024;-90
2021/01/28 12:13:50;;;;;;;22.98;14.13;;;5.80;99.90;;;;;;5082148;28;20056;-89
2021/01/28 12:16:23;;;;;;;18.33;12.75;;;5.80;99.90;;;;;;5060836;28;20028;-90
2021/01/28 12:18:48;;;;;;;20.13;12.43;;;5.80;99.90;;;;;;5077300;28;20055;-89
2021/01/28 12:21:14;;;;;;;23.95;13.15;;;5.80;99.90;;;;;;5076796;28;20024;-90
2021/01/28 12:23:42;;;;;;;16.55;11.52;;;5.70;99.90;;;;;;5060610;28;20029;-88
2021/01/28 12:26:08;;;;;;;20.08;12.18;;;5.70;99.90;;;;;;5076336;28;20028;-89
2021/01/28 12:28:33;;;;;;;18.13;11.10;;;5.70;99.90;;;;;;5077131;28;20021;-89
2021/01/28 12:30:59;;;;;;;18.92;10.77;;;5.80;99.90;;;;;;5060279;28;20020;-89
2021/01/28 12:33:25;;;;;;;15.45;8.85;;;5.70;99.90;;;;;;5076294;28;20024;-89
2021/01/28 12:35:53;;;;;;;21.10;11.15;;;5.80;99.90;;;;;;5076561;28;20025;-87
2021/01/28 12:38:18;;;;;;;16.35;9.90;;;5.80;99.90;;;;;;5077485;28;20046;-89
2021/01/28 12:40:47;;;;;;;25.40;10.68;;;5.80;99.90;;;;;;5077011;28;20115;-89
2021/01/28 12:43:13;;;;;;;15.43;10.07;;;5.80;99.90;;;;;;5076259;28;20027;-89
2021/01/28 12:45:39;;;;;;;15.30;10.05;;;5.80;99.90;;;;;;5076765;28;20021;-87
2021/01/28 12:48:05;;;;;;;15.65;9.88;;;5.80;99.90;;;;;;5059688;28;20032;-90
2021/01/28 12:50:33;;;;;;;16.95;9.98;;;5.80;99.90;;;;;;5077238;28;20060;-93
2021/01/28 12:53:00;;;;;;;14.18;9.05;;;5.80;99.90;;;;;;5078342;28;20107;-90
2021/01/28 12:55:26;;;;;;;19.48;10.05;;;5.90;99.90;;;;;;5061766;28;20037;-89
2021/01/28 12:57:51;;;;;;;20.33;11.60;;;5.80;99.90;;;;;;5064380;28;20090;-90
2021/01/28 13:00:21;;;;;;;19.58;11.52;;;5.80;99.90;;;;;;5077859;28;20066;-89
2021/01/28 13:02:49;;;;;;;17.73;11.27;;;5.80;99.90;;;;;;5077794;28;20047;-90
2021/01/28 13:05:20;;;;;;;18.92;11.50;;;5.80;99.90;;;;;;5061630;28;20041;-90
2021/01/28 13:07:51;;;;;;;23.63;11.95;;;5.80;99.90;;;;;;5077244;28;20517;-90